Time;durP1;ratioP1;P1;durP2;ratioP2;P2;SDS_P1;SDS_P2;PMS_P1;PMS_P2;Temp;Humidity;BMP_temperature;BMP_pressure;BME280_temperature;BME280_humidity;BME280_pressure;Samples;Min_cycle;Max_cycle;Signal;HPM_P1;HPM_P2
2022/07/03 00:01:20;;;;;;;;;2.50;1.50;;;;;21.63;42.15;101502.38;5040634;28;45352;-73
2022/07/03 00:03:46;;;;;;;;;2.75;1.00;;;;;21.63;42.32;101506.00;5021724;28;45504;-73
2022/07/03 00:06:12;;;;;;;;;1.00;1.00;;;;;21.64;41.76;101501.41;5032231;28;48243;-73
2022/07/03 00:08:37;;;;;;;;;1.00;1.00;;;;;21.57;42.12;101489.22;5019039;28;45309;-73
2022/07/03 00:11:04;;;;;;;;;1.00;1.00;;;;;21.50;41.93;101483.34;5020480;28;45348;-74
2022/07/03 00:13:30;;;;;;;;;1.00;1.00;;;;;21.55;41.90;101500.19;5020292;28;45225;-73
2022/07/03 00:15:55;;;;;;;;;1.00;1.00;;;;;21.49;41.77;101495.16;5020556;28;45315;-73
2022/07/03 00:18:20;;;;;;;;;1.00;0.25;;;;;21.38;42.20;101475.94;5020331;28;45399;-73
2022/07/03 00:20:49;;;;;;;;;0.75;0.75;;;;;21.48;41.39;101496.13;5020281;28;45435;-73
2022/07/03 00:23:17;;;;;;;;;1.00;1.00;;;;;21.40;41.54;101487.56;5020044;28;45189;-73
2022/07/03 00:25:43;;;;;;;;;1.00;1.00;;;;;21.35;41.77;101481.56;5032559;28;46817;-73
2022/07/03 00:28:09;;;;;;;;;0.25;0.25;;;;;21.38;41.74;101493.09;5038039;28;45614;-73
2022/07/03 00:30:35;;;;;;;;;0.00;0.00;;;;;21.35;40.92;101487.00;5040341;28;45173;-73
2022/07/03 00:33:04;;;;;;;;;0.00;0.00;;;;;21.24;42.02;101471.44;5022771;28;45233;-73
2022/07/03 00:35:39;;;;;;;;;1.00;1.00;;;;;21.22;41.67;101474.25;5020340;28;47211;-73
2022/07/03 00:38:04;;;;;;;;;1.25;0.50;;;;;21.25;41.83;101482.19;5037961;28;45343;-73
2022/07/03 00:40:30;;;;;;;;;0.00;0.00;;;;;21.26;41.64;101491.22;5039957;28;45517;-73
2022/07/03 00:42:59;;;;;;;;;0.00;0.00;;;;;21.24;41.59;101487.72;5034816;28;45631;-73
2022/07/03 00:45:26;;;;;;;;;1.00;1.00;;;;;21.17;41.63;101481.84;5033123;28;45372;-73
2022/07/03 00:47:51;;;;;;;;;1.25;0.75;;;;;21.23;42.24;101481.44;5027103;28;45216;-73
2022/07/03 00:50:25;;;;;;;;;0.75;0.75;;;;;21.20;42.09;101486.16;5026007;28;45339;-73
2022/07/03 00:52:52;;;;;;;;;0.25;0.25;;;;;21.17;42.12;101484.53;5019803;28;45161;-73
2022/07/03 00:55:17;;;;;;;;;2.00;0.00;;;;;21.23;41.77;101494.13;5018234;28;47131;-73
2022/07/03 00:57:45;;;;;;;;;1.00;0.00;;;;;21.19;41.76;101479.88;5028169;28;45269;-73
2022/07/03 01:00:15;;;;;;;;;0.00;0.00;;;;;21.25;41.86;101489.44;5041403;28;45416;-73
2022/07/03 01:02:40;;;;;;;;;1.75;0.75;;;;;21.31;42.02;101494.50;5050920;28;45256;-73
2022/07/03 01:05:08;;;;;;;;;1.00;1.00;;;;;21.31;41.68;101496.34;5025409;28;46263;-73
2022/07/03 01:07:47;;;;;;;;;0.25;0.25;;;;;21.22;41.69;101490.53;5035546;28;45550;-73
2022/07/03 01:10:22;;;;;;;;;1.75;0.75;;;;;21.29;41.03;101493.72;5021869;28;45782;-73
2022/07/03 01:13:08;;;;;;;;;0.00;0.00;;;;;21.24;41.08;101491.31;5019458;28;45399;-73
2022/07/03 01:16:03;;;;;;;;;0.00;0.00;;;;;21.24;41.24;101488.59;5030734;28;46372;-73
2022/07/03 01:18:48;;;;;;;;;1.00;0.00;;;;;21.16;40.85;101493.66;5023744;28;45459;-72
2022/07/03 01:21:48;;;;;;;;;0.50;0.00;;;;;21.15;41.45;101497.34;5036408;28;45552;-73
2022/07/03 01:24:23;;;;;;;;;1.50;1.00;;;;;21.15;40.90;101500.06;5036146;28;45272;-73
2022/07/03 01:26:54;;;;;;;;;0.00;0.00;;;;;21.02;41.10;101483.69;5022900;28;47282;-73
2022/07/03 01:29:29;;;;;;;;;2.25;1.00;;;;;21.09;41.03;101504.03;5022983;28;45264;-73
2022/07/03 01:31:57;;;;;;;;;1.00;1.00;;;;;21.05;41.13;101499.78;5031352;28;45375;-72
2022/07/03 01:34:30;;;;;;;;;0.25;0.25;;;;;21.03;41.18;101506.28;5035395;28;45509;-73
2022/07/03 01:37:00;;;;;;;;;0.00;0.00;;;;;21.01;41.36;101498.22;5033304;28;45451;-73
2022/07/03 01:39:27;;;;;;;;;0.50;0.50;;;;;20.95;41.29;101489.59;5038088;28;45549;-73
2022/07/03 01:41:53;;;;;;;;;0.25;0.25;;;;;20.95;41.49;101495.94;5022703;28;45426;-73
2022/07/03 01:44:22;;;;;;;;;0.50;0.25;;;;;20.83;41.52;101478.59;5027888;28;45447;-73
2022/07/03 01:46:47;;;;;;;;;1.25;1.00;;;;;20.86;41.44;101491.94;5032025;28;45248;-73
2022/07/03 01:49:14;;;;;;;;;0.00;0.00;;;;;20.88;41.47;101499.97;5026647;28;45282;-73
2022/07/03 01:51:41;;;;;;;;;0.00;0.00;;;;;20.75;41.27;101485.47;5030527;28;45541;-73
2022/07/03 01:54:09;;;;;;;;;0.00;0.00;;;;;20.81;41.62;101501.34;5020884;28;45585;-73
2022/07/03 01:56:35;;;;;;;;;1.00;0.00;;;;;20.81;41.87;101498.63;5044991;28;46220;-73
2022/07/03 01:59:01;;;;;;;;;2.75;1.00;;;;;20.73;41.81;101475.59;5044372;28;45323;-73
2022/07/03 02:02:03;;;;;;;;;0.25;0.25;;;;;20.78;41.82;101490.69;5030947;28;45393;-73
2022/07/03 02:04:44;;;;;;;;;0.00;0.00;;;;;20.77;41.80;101494.41;5022297;28;45410;-73
2022/07/03 02:07:24;;;;;;;;;0.00;0.00;;;;;20.70;41.66;101485.78;5034233;28;45639;-73
2022/07/03 02:10:04;;;;;;;;;1.00;0.50;;;;;20.71;41.94;101485.69;5028084;28;45408;-73
2022/07/03 02:12:38;;;;;;;;;0.75;0.75;;;;;20.72;41.94;101478.41;5040989;28;45436;-73
2022/07/03 02:15:07;;;;;;;;;0.00;0.00;;;;;20.71;42.48;101480.25;5048778;28;45259;-73
2022/07/03 02:17:45;;;;;;;;;0.00;0.00;;;;;20.72;42.02;101492.81;5051154;28;47636;-73
2022/07/03 02:20:11;;;;;;;;;0.00;0.00;;;;;20.58;41.94;101472.94;5022801;28;45308;-73
2022/07/03 02:22:46;;;;;;;;;0.00;0.00;;;;;20.67;42.58;101494.09;5022254;28;45299;-73
2022/07/03 02:25:21;;;;;;;;;0.00;0.00;;;;;20.66;42.34;101486.91;5042054;28;45285;-73
2022/07/03 02:28:03;;;;;;;;;0.75;0.75;;;;;20.63;42.34;101481.69;5053215;28;46267;-73
2022/07/03 02:30:29;;;;;;;;;1.25;1.25;;;;;20.64;42.68;101495.16;5040607;28;45417;-73
2022/07/03 02:32:58;;;;;;;;;0.75;0.75;;;;;20.61;42.26;101491.72;5040092;28;45541;-73
2022/07/03 02:35:32;;;;;;;;;0.50;0.50;;;;;20.54;42.56;101491.25;5040808;28;45271;-73
2022/07/03 02:38:09;;;;;;;;;1.50;0.00;;;;;20.54;42.67;101488.53;5026260;28;45276;-73
2022/07/03 02:40:57;;;;;;;;;1.00;1.00;;;;;20.54;43.06;101499.38;5041561;28;45444;-73
2022/07/03 02:43:31;;;;;;;;;0.00;0.00;;;;;20.52;42.85;101498.59;5030115;28;45525;-73
2022/07/03 02:46:48;;;;;;;;;0.75;0.50;;;;;20.50;42.79;101496.00;5021748;28;45300;-73
2022/07/03 02:49:01;;;;;;;;;1.25;0.00;;;;;20.39;43.11;101489.50;5021519;28;45249;-73
2022/07/03 02:51:35;;;;;;;;;0.25;0.00;;;;;20.36;42.85;101485.13;5020037;28;45955;-73
2022/07/03 02:54:09;;;;;;;;;0.25;0.25;;;;;20.45;43.19;101505.38;5021528;28;45392;-72
2022/07/03 02:56:44;;;;;;;;;1.00;0.00;;;;;20.36;42.82;101496.84;5021755;28;45406;-73
2022/07/03 02:59:30;;;;;;;;;0.25;0.00;;;;;20.33;42.91;101499.75;5033303;28;46344;-72
2022/07/03 03:02:07;;;;;;;;;0.50;0.50;;;;;20.36;43.20;101510.41;5028206;28;45505;-73
2022/07/03 03:04:34;;;;;;;;;0.00;0.00;;;;;20.26;42.96;101486.66;5030872;28;45399;-73
2022/07/03 03:07:13;;;;;;;;;0.00;0.00;;;;;20.27;42.97;101510.97;5025208;28;45631;-74
2022/07/03 03:09:41;;;;;;;;;1.00;1.00;;;;;20.18;43.32;101504.28;5028200;28;47176;-73
2022/07/03 03:12:08;;;;;;;;;0.00;0.00;;;;;20.20;43.88;101506.88;5028175;28;45322;-73
2022/07/03 03:14:44;;;;;;;;;0.00;0.00;;;;;20.21;43.81;101522.16;5027768;28;45387;-73
2022/07/03 03:17:16;;;;;;;;;0.00;0.00;;;;;20.12;44.00;101503.78;5021500;28;45472;-73
2022/07/03 03:19:46;;;;;;;;;0.00;0.00;;;;;20.22;43.87;101518.50;5021357;28;46419;-73
2022/07/03 03:22:47;;;;;;;;;0.50;0.50;;;;;20.25;44.24;101521.03;5021239;28;45169;-73
2022/07/03 03:25:12;;;;;;;;;0.50;0.50;;;;;20.21;44.20;101513.16;5041307;28;45328;-73
2022/07/03 03:27:37;;;;;;;;;0.25;0.25;;;;;20.20;44.27;101511.41;5025705;28;45386;-73
2022/07/03 03:30:06;;;;;;;;;0.25;0.25;;;;;20.21;44.34;101514.03;5027177;28;45401;-73
2022/07/03 03:32:33;;;;;;;;;1.00;0.75;;;;;20.28;44.75;101515.44;5037469;28;45537;-73
2022/07/03 03:34:59;;;;;;;;;1.00;1.00;;;;;20.28;44.64;101515.44;5028245;28;45254;-73
2022/07/03 03:37:24;;;;;;;;;0.00;0.00;;;;;20.16;44.71;101492.66;5039264;28;45200;-73
2022/07/03 03:39:49;;;;;;;;;2.25;1.50;;;;;20.27;44.37;101505.53;5020897;28;45148;-73
2022/07/03 03:42:14;;;;;;;;;2.00;2.00;;;;;20.29;44.92;101508.16;5021775;28;45216;-73
2022/07/03 03:44:40;;;;;;;;;1.00;1.00;;;;;20.26;44.63;101511.06;5041026;28;45376;-73
2022/07/03 03:47:05;;;;;;;;;0.00;0.00;;;;;20.27;44.63;101512.81;5027399;28;45606;-73
2022/07/03 03:49:31;;;;;;;;;1.00;1.00;;;;;20.23;44.75;101509.41;5023156;28;46249;-73
2022/07/03 03:51:57;;;;;;;;;2.00;1.00;;;;;20.25;45.10;101512.91;5019679;28;45945;-73
2022/07/03 03:54:22;;;;;;;;;1.00;1.00;;;;;20.21;45.13;101508.63;5033584;28;45403;-73
2022/07/03 03:56:47;;;;;;;;;1.50;1.00;;;;;20.13;45.07;101500.06;5020672;28;45452;-73
2022/07/03 03:59:13;;;;;;;;;0.75;0.75;;;;;20.17;45.02;101510.66;5033026;28;46100;-73
2022/07/03 04:01:38;;;;;;;;;1.00;1.00;;;;;20.15;45.25;101526.13;5031754;28;45372;-73
2022/07/03 04:04:03;;;;;;;;;1.25;1.00;;;;;20.12;44.98;101514.63;5020780;28;45253;-73
2022/07/03 04:06:29;;;;;;;;;1.00;1.00;;;;;20.15;45.39;101517.13;5029155;28;45449;-73
2022/07/03 04:08:54;;;;;;;;;1.25;1.25;;;;;20.15;45.27;101518.00;5035561;28;47582;-73
2022/07/03 04:11:19;;;;;;;;;1.50;1.00;;;;;20.10;44.79;101519.25;5033468;28;45351;-73
2022/07/03 04:13:45;;;;;;;;;2.00;1.00;;;;;20.10;45.08;101520.13;5035120;28;45382;-73
2022/07/03 04:16:11;;;;;;;;;1.00;1.00;;;;;20.12;45.23;101528.16;5045824;28;45438;-73
2022/07/03 04:18:36;;;;;;;;;0.00;0.00;;;;;19.92;45.53;101500.41;5020334;28;45532;-73
2022/07/03 04:21:02;;;;;;;;;1.00;1.00;;;;;19.99;45.42;101509.03;5020272;28;45341;-73
2022/07/03 04:23:27;;;;;;;;;2.00;2.00;;;;;20.04;45.55;101528.59;5020489;28;45254;-73
2022/07/03 04:25:53;;;;;;;;;0.50;0.50;;;;;20.01;45.68;101525.22;5047157;28;45242;-73
2022/07/03 04:28:18;;;;;;;;;1.00;1.00;;;;;20.04;45.45;101531.31;5033155;28;45152;-73
2022/07/03 04:30:43;;;;;;;;;2.00;1.00;;;;;20.06;45.58;101542.94;5031974;28;45254;-73
2022/07/03 04:33:09;;;;;;;;;1.50;1.50;;;;;20.05;45.57;101540.34;5036312;28;45368;-73
2022/07/03 04:35:34;;;;;;;;;0.75;0.75;;;;;20.03;45.50;101534.13;5034612;28;45291;-73
2022/07/03 04:37:59;;;;;;;;;1.25;1.25;;;;;20.05;45.56;101540.34;5033195;28;45416;-72
2022/07/03 04:40:25;;;;;;;;;3.00;2.00;;;;;20.05;45.61;101556.59;5035327;28;45161;-73
2022/07/03 04:42:50;;;;;;;;;1.50;1.50;;;;;20.04;45.53;101549.44;5025716;28;45548;-72
2022/07/03 04:45:15;;;;;;;;;3.75;2.00;;;;;20.02;46.11;101545.94;5028531;28;45505;-73
2022/07/03 04:47:41;;;;;;;;;1.25;1.00;;;;;20.02;45.99;101554.94;5036767;28;46055;-73
2022/07/03 04:50:06;;;;;;;;;4.00;3.25;;;;;19.99;45.73;101553.25;5027754;28;45311;-73
2022/07/03 04:52:32;;;;;;;;;2.00;0.00;;;;;19.88;45.71;101544.91;5019774;28;45694;-73
2022/07/03 04:54:57;;;;;;;;;2.50;2.00;;;;;19.96;45.75;101548.06;5019730;28;45454;-73
2022/07/03 04:57:22;;;;;;;;;1.00;1.00;;;;;19.96;45.97;101548.06;5019652;28;45450;-72
2022/07/03 04:59:48;;;;;;;;;3.75;2.00;;;;;19.93;45.77;101555.47;5036994;28;45251;-73
2022/07/03 05:02:13;;;;;;;;;1.00;1.00;;;;;19.85;45.67;101553.22;5024389;28;45479;-73
2022/07/03 05:04:38;;;;;;;;;1.00;1.00;;;;;19.86;45.84;101552.25;5019727;28;45344;-73
2022/07/03 05:07:04;;;;;;;;;0.75;0.00;;;;;19.80;46.27;101541.78;5023911;28;46218;-73
2022/07/03 05:09:29;;;;;;;;;0.25;0.25;;;;;19.89;46.32;101559.34;5028016;28;45363;-73
2022/07/03 05:11:55;;;;;;;;;0.00;0.00;;;;;19.86;46.36;101560.38;5019631;28;45740;-73
2022/07/03 05:14:20;;;;;;;;;0.00;0.00;;;;;19.81;46.70;101551.63;5019794;28;45304;-73
2022/07/03 05:16:46;;;;;;;;;1.00;1.00;;;;;19.80;46.80;101560.75;5019373;28;46469;-73
2022/07/03 05:19:11;;;;;;;;;1.00;1.00;;;;;19.78;46.91;101565.41;5019682;28;45292;-73
2022/07/03 05:21:36;;;;;;;;;0.75;0.75;;;;;19.68;47.03;101542.44;5019512;28;45332;-73
2022/07/03 05:24:02;;;;;;;;;1.00;1.00;;;;;19.69;46.91;101552.34;5025957;28;45375;-73
2022/07/03 05:26:27;;;;;;;;;0.00;0.00;;;;;19.68;47.60;101561.41;5019423;28;45350;-73
2022/07/03 05:28:52;;;;;;;;;1.00;1.00;;;;;19.64;48.03;101552.59;5019477;28;45236;-73
2022/07/03 05:31:18;;;;;;;;;1.00;0.50;;;;;19.65;48.20;101561.63;5029582;28;45441;-73
2022/07/03 05:33:43;;;;;;;;;0.50;0.50;;;;;19.64;48.09;101552.59;5024351;28;48800;-72
2022/07/03 05:36:08;;;;;;;;;0.50;0.50;;;;;19.71;47.95;101555.81;5034409;28;45941;-73
2022/07/03 05:41:18;;;;;;;;;0.00;0.00;;;;;19.75;48.22;101577.25;5019333;28;45339;-73
2022/07/03 05:43:44;;;;;;;;;2.00;1.00;;;;;19.66;48.27;101552.50;5032385;28;45299;-73
2022/07/03 05:46:09;;;;;;;;;1.00;1.00;;;;;19.70;48.61;101552.25;5019637;28;45405;-72
2022/07/03 05:48:35;;;;;;;;;0.25;0.25;;;;;19.80;48.78;101566.16;5019334;28;45229;-73
2022/07/03 05:51:01;;;;;;;;;1.00;1.00;;;;;19.82;48.93;101576.91;5018877;28;45562;-72
2022/07/03 05:53:26;;;;;;;;;1.00;1.00;;;;;19.71;49.24;101562.13;5019241;28;45426;-73
2022/07/03 05:55:52;;;;;;;;;0.50;0.50;;;;;19.70;49.31;101552.25;5031978;28;46138;-73
2022/07/03 05:58:17;;;;;;;;;0.00;0.00;;;;;19.80;48.83;101567.03;5019667;28;45487;-72
2022/07/03 06:00:43;;;;;;;;;0.00;0.00;;;;;19.81;48.97;101570.59;5023176;28;45765;-72
2022/07/03 06:03:08;;;;;;;;;0.00;0.00;;;;;19.85;49.14;101566.78;5028032;28;45729;-72
2022/07/03 06:05:34;;;;;;;;;1.50;0.00;;;;;19.90;49.59;101574.63;5036439;28;47473;-73
2022/07/03 06:07:59;;;;;;;;;1.00;1.00;;;;;19.91;49.23;101576.38;5034915;28;45444;-73
2022/07/03 06:10:26;;;;;;;;;1.00;1.00;;;;;19.88;49.16;101572.00;5022687;28;45387;-73
2022/07/03 06:12:51;;;;;;;;;0.25;0.25;;;;;19.94;49.65;101565.34;5022308;28;45239;-73
2022/07/03 06:15:17;;;;;;;;;0.00;0.00;;;;;19.94;49.35;101577.06;5022297;28;45233;-73
2022/07/03 06:17:43;;;;;;;;;1.00;1.00;;;;;19.91;49.11;101566.41;5022432;28;45209;-73
2022/07/03 06:20:09;;;;;;;;;0.50;0.50;;;;;19.94;49.53;101571.63;5022277;28;45277;-73
2022/07/03 06:22:35;;;;;;;;;1.00;1.00;;;;;20.00;49.32;101578.53;5022244;28;45602;-73
2022/07/03 06:25:00;;;;;;;;;1.00;1.00;;;;;19.93;49.52;101575.31;5021909;28;46213;-73
2022/07/03 06:27:25;;;;;;;;;0.75;0.75;;;;;20.02;49.27;101592.88;5022151;28;45283;-73
2022/07/03 06:29:51;;;;;;;;;1.00;1.00;;;;;19.94;49.62;101592.44;5026489;28;45583;-73
2022/07/03 06:32:17;;;;;;;;;1.00;1.00;;;;;19.89;49.95;101584.56;5035640;28;45394;-73
2022/07/03 06:34:45;;;;;;;;;0.25;0.25;;;;;19.92;49.92;101587.13;5023948;28;45967;-73
2022/07/03 06:37:11;;;;;;;;;1.00;1.00;;;;;19.88;50.38;101581.97;5032862;28;45352;-73
2022/07/03 06:39:37;;;;;;;;;1.75;1.75;;;;;19.96;50.17;101588.69;5023406;28;45315;-73
2022/07/03 06:42:03;;;;;;;;;1.00;1.00;;;;;19.91;50.32;101582.69;5021804;28;45505;-73
2022/07/03 06:44:28;;;;;;;;;5.00;2.00;;;;;19.74;50.55;101550.22;5035973;28;46659;-73
2022/07/03 06:46:54;;;;;;;;;1.25;1.25;;;;;19.92;50.58;101578.13;5021906;28;45259;-72
2022/07/03 06:49:20;;;;;;;;;1.25;1.00;;;;;20.01;50.48;101590.25;5021964;28;45170;-73
2022/07/03 06:51:45;;;;;;;;;1.00;1.00;;;;;19.97;49.94;101582.28;5021508;28;45548;-73
2022/07/03 06:54:11;;;;;;;;;1.00;1.00;;;;;20.05;50.20;101591.84;5021383;28;45324;-73
2022/07/03 06:56:36;;;;;;;;;1.00;1.00;;;;;20.10;50.44;101596.00;5036886;28;45437;-73
2022/07/03 06:59:02;;;;;;;;;6.75;2.00;;;;;20.04;50.53;101581.94;5038922;28;45754;-73
2022/07/03 07:01:27;;;;;;;;;1.50;1.00;;;;;20.12;50.25;101595.91;5039873;28;45662;-73
2022/07/03 07:03:53;;;;;;;;;1.00;1.00;;;;;20.03;50.39;101591.03;5023669;28;46549;-73
2022/07/03 07:06:18;;;;;;;;;1.00;1.00;;;;;19.94;50.11;101577.06;5021596;28;45380;-73
2022/07/03 07:08:44;;;;;;;;;2.00;2.00;;;;;19.97;50.39;101586.84;5026593;28;45308;-73
2022/07/03 07:11:09;;;;;;;;;2.00;2.00;;;;;19.87;51.02;101577.53;5036056;28;45230;-73
2022/07/03 07:13:34;;;;;;;;;2.00;2.00;;;;;20.02;50.45;101601.00;5035792;28;45361;-73
2022/07/03 07:16:00;;;;;;;;;2.50;2.50;;;;;20.05;50.21;101595.41;5021427;28;45458;-73
2022/07/03 07:18:26;;;;;;;;;1.75;1.75;;;;;20.11;50.09;101591.44;5038470;28;45311;-73
2022/07/03 07:20:51;;;;;;;;;3.00;3.00;;;;;20.21;50.36;101605.34;5029506;28;45235;-73
2022/07/03 07:23:16;;;;;;;;;2.00;2.00;;;;;20.18;49.97;101595.56;5020795;28;48127;-73
2022/07/03 07:25:42;;;;;;;;;3.75;3.75;;;;;20.26;50.27;101604.09;5021126;28;45229;-73
2022/07/03 07:28:07;;;;;;;;;4.00;4.00;;;;;20.26;50.18;101603.22;5021080;28;45209;-73
2022/07/03 07:30:32;;;;;;;;;5.50;4.25;;;;;20.35;50.29;101608.97;5028693;28;45237;-73
2022/07/03 07:32:58;;;;;;;;;2.00;2.00;;;;;20.25;50.49;101582.53;5024172;28;46528;-73
2022/07/03 07:35:23;;;;;;;;;1.00;1.00;;;;;20.40;50.09;101607.81;5023570;28;45433;-72
2022/07/03 07:37:48;;;;;;;;;3.00;2.75;;;;;20.34;49.79;101601.78;5030970;28;45243;-73
2022/07/03 07:40:14;;;;;;;;;6.00;4.25;;;;;20.33;49.96;101597.34;5030599;28;45638;-73
2022/07/03 07:42:39;;;;;;;;;3.25;2.50;;;;;20.36;50.04;101605.31;5024924;28;45383;-73
2022/07/03 07:45:05;;;;;;;;;2.25;2.25;;;;;20.40;49.75;101594.25;5033319;28;45404;-73
2022/07/03 07:47:31;;;;;;;;;2.00;2.00;;;;;20.51;49.56;101613.47;5039545;28;45368;-73
2022/07/03 07:49:56;;;;;;;;;2.75;2.75;;;;;20.45;49.99;101595.75;5030803;28;45284;-73
2022/07/03 07:52:24;;;;;;;;;4.00;3.00;;;;;20.61;49.52;101605.66;5020322;28;46808;-73
2022/07/03 07:54:49;;;;;;;;;4.00;4.00;;;;;20.66;49.88;101612.56;5020667;28;45383;-73
2022/07/03 07:57:14;;;;;;;;;2.75;2.75;;;;;20.66;49.33;101599.00;5025326;28;45694;-73
2022/07/03 07:59:39;;;;;;;;;3.50;3.00;;;;;20.74;49.56;101603.97;5038276;28;45327;-73
2022/07/03 08:07:33;;;;;;;;;4.00;3.75;;;;;20.89;48.84;101607.56;5020695;28;45374;-73
2022/07/03 08:09:58;;;;;;;;;2.75;2.75;;;;;20.86;49.28;101603.19;5021407;28;45387;-73
2022/07/03 08:12:24;;;;;;;;;3.25;3.25;;;;;20.98;49.81;101617.88;5020429;28;46145;-73
2022/07/03 08:14:49;;;;;;;;;2.50;2.50;;;;;21.00;48.94;101601.47;5020360;28;45399;-73
2022/07/03 08:17:14;;;;;;;;;2.50;1.25;;;;;21.12;49.60;101607.94;5020621;28;45386;-73
2022/07/03 08:19:40;;;;;;;;;2.00;2.00;;;;;21.16;48.82;101601.38;5020345;28;45383;-73
2022/07/03 08:22:05;;;;;;;;;4.00;4.00;;;;;21.20;49.41;101587.53;5022947;28;45379;-73
2022/07/03 08:24:31;;;;;;;;;2.50;2.50;;;;;21.10;48.88;101554.66;5031176;28;45588;-73
2022/07/03 08:26:57;;;;;;;;;4.00;3.50;;;;;21.39;49.31;101599.91;5021614;28;45300;-73
2022/07/03 08:29:22;;;;;;;;;3.00;2.00;;;;;21.43;48.54;101596.00;5032357;28;45581;-73
2022/07/03 08:31:48;;;;;;;;;3.25;3.00;;;;;21.48;49.00;101588.47;5024908;28;46250;-73
2022/07/03 08:34:13;;;;;;;;;3.50;3.50;;;;;21.52;48.40;101591.84;5040289;28;45477;-73
2022/07/03 08:36:41;;;;;;;;;3.00;3.00;;;;;21.62;47.45;101598.47;5031825;28;45209;-73
2022/07/03 08:39:07;;;;;;;;;1.50;1.50;;;;;21.65;47.54;101599.13;5021459;28;45458;-72
2022/07/03 08:41:36;;;;;;;;;2.00;2.00;;;;;21.65;47.19;101595.50;5034637;28;45985;-73
2022/07/03 08:44:02;;;;;;;;;2.50;2.50;;;;;21.69;47.69;101588.06;5028637;28;45456;-73
2022/07/03 08:46:31;;;;;;;;;2.25;2.25;;;;;21.58;47.69;101581.47;5035368;28;45150;-72
2022/07/03 08:48:59;;;;;;;;;3.00;3.00;;;;;21.67;48.29;101592.69;5039750;28;45517;-72
2022/07/03 08:51:24;;;;;;;;;2.00;2.00;;;;;21.69;47.95;101586.19;5039174;28;46041;-72
2022/07/03 08:53:54;;;;;;;;;2.25;1.75;;;;;21.69;47.33;101578.06;5039162;28;45490;-72
2022/07/03 08:56:22;;;;;;;;;3.50;2.00;;;;;21.85;46.97;101599.63;5039482;28;45363;-71
2022/07/03 08:58:47;;;;;;;;;1.50;1.50;;;;;21.86;47.03;101593.22;5040029;28;45537;-71
2022/07/03 09:01:18;;;;;;;;;3.00;3.00;;;;;21.78;47.18;101572.00;5018369;28;46438;-67
2022/07/03 09:03:44;;;;;;;;;3.25;2.00;;;;;21.87;47.96;101580.50;5019565;28;45500;-70
2022/07/03 09:06:12;;;;;;;;;1.50;1.50;;;;;21.98;46.95;101600.56;5024759;28;45224;-71
2022/07/03 09:08:38;;;;;;;;;4.00;4.00;;;;;21.89;47.67;101575.88;5031600;28;45366;-70
2022/07/03 09:11:03;;;;;;;;;3.75;3.75;;;;;22.07;47.38;101599.09;5019382;28;45419;-78
2022/07/03 09:13:29;;;;;;;;;2.00;2.00;;;;;21.99;47.23;101580.56;5031724;28;45381;-69
2022/07/03 09:15:55;;;;;;;;;2.00;2.00;;;;;22.01;46.61;101575.03;5039750;28;45445;-70
2022/07/03 09:18:38;;;;;;;;;2.00;2.00;;;;;22.12;46.53;101593.31;5038212;28;45606;-70
2022/07/03 09:21:03;;;;;;;;;2.00;2.00;;;;;22.19;47.09;101600.09;5041359;28;45485;-70
2022/07/03 09:23:41;;;;;;;;;2.00;2.00;;;;;21.99;46.87;101560.66;5025637;28;45383;-70
2022/07/03 09:26:12;;;;;;;;;5.00;5.00;;;;;22.06;46.97;101567.44;5024699;28;45471;-70
2022/07/03 09:28:51;;;;;;;;;2.50;2.50;;;;;22.25;46.85;101593.38;5023093;28;46150;-70
2022/07/03 09:31:19;;;;;;;;;2.25;2.00;;;;;22.27;46.97;101581.41;5018342;28;48140;-70
2022/07/03 09:33:56;;;;;;;;;2.25;1.75;;;;;22.31;47.44;101584.81;5030293;28;45454;-70
2022/07/03 09:36:37;;;;;;;;;2.50;2.00;;;;;22.35;47.24;101592.69;5021293;28;45469;-70
2022/07/03 09:39:21;;;;;;;;;2.00;2.00;;;;;22.41;46.64;101588.66;5021841;28;45949;-70
2022/07/03 09:42:08;;;;;;;;;3.25;3.00;;;;;22.39;46.82;101585.16;5032544;28;45284;-70
2022/07/03 09:44:42;;;;;;;;;3.75;3.25;;;;;22.43;46.51;101592.13;5049311;28;45516;-70
2022/07/03 09:47:17;;;;;;;;;3.75;2.00;;;;;22.45;46.80;101589.31;5047120;28;45316;-70
2022/07/03 09:49:53;;;;;;;;;2.00;2.00;;;;;22.37;46.68;101585.28;5023018;28;45227;-70
2022/07/03 09:52:42;;;;;;;;;1.75;1.75;;;;;22.37;46.80;101588.00;5022193;28;46727;-70
2022/07/03 09:55:10;;;;;;;;;1.00;1.00;;;;;22.39;47.45;101602.34;5041306;28;45318;-70
2022/07/03 09:57:40;;;;;;;;;2.75;2.00;;;;;22.41;46.89;101593.22;5042175;28;45424;-70
2022/07/03 10:00:10;;;;;;;;;2.00;2.00;;;;;22.42;47.53;101593.13;5040515;28;45496;-70
2022/07/03 10:02:52;;;;;;;;;2.00;2.00;;;;;22.42;46.63;101593.13;5040461;28;47076;-70
2022/07/03 10:05:17;;;;;;;;;2.00;1.75;;;;;22.39;46.86;101582.44;5038752;28;45276;-69
2022/07/03 10:07:55;;;;;;;;;1.00;1.00;;;;;22.48;46.50;101599.97;5032570;28;45424;-70
2022/07/03 10:10:22;;;;;;;;;2.00;2.00;;;;;22.46;46.08;101593.78;5022664;28;45534;-70
2022/07/03 10:12:53;;;;;;;;;2.00;2.00;;;;;22.49;46.86;101602.59;5022258;28;46074;-70
2022/07/03 10:15:19;;;;;;;;;4.00;2.75;;;;;22.42;46.72;101598.56;5042391;28;45424;-70
2022/07/03 10:17:59;;;;;;;;;4.75;4.25;;;;;22.43;46.95;101591.28;5028679;28;45506;-70
2022/07/03 10:20:35;;;;;;;;;3.00;2.75;;;;;22.53;46.15;101603.25;5037657;28;45490;-70
2022/07/03 10:23:01;;;;;;;;;3.00;3.00;;;;;22.52;46.24;101599.66;5021974;28;46748;-70
2022/07/03 10:25:27;;;;;;;;;3.50;3.00;;;;;22.49;46.42;101607.19;5022484;28;45360;-72
2022/07/03 10:27:53;;;;;;;;;4.00;2.25;;;;;22.42;46.22;101600.41;5040018;28;45338;-72
2022/07/03 10:30:20;;;;;;;;;3.00;3.00;;;;;22.44;46.07;101614.78;5021884;28;45608;-72
2022/07/03 10:32:51;;;;;;;;;1.75;1.75;;;;;22.47;45.74;101607.28;5035469;28;47423;-72
2022/07/03 10:35:33;;;;;;;;;3.75;1.50;;;;;22.49;46.19;101608.03;5032181;28;45521;-72
2022/07/03 10:38:01;;;;;;;;;3.00;3.00;;;;;22.52;46.52;101601.50;5022449;28;45403;-72
2022/07/03 10:46:36;;;;;;;;;4.00;3.25;;;;;22.59;46.48;101602.84;5051422;28;45641;-72
2022/07/03 10:49:05;;;;;;;;;1.00;1.00;;;;;22.58;46.02;101601.09;5024693;28;45389;-72
2022/07/03 10:51:49;;;;;;;;;7.25;6.00;;;;;22.64;45.70;101599.81;5036067;28;45414;-72
2022/07/03 10:54:24;;;;;;;;;3.50;3.50;;;;;22.62;46.27;101599.00;5020114;28;47422;-73
2022/07/03 10:56:58;;;;;;;;;3.00;3.00;;;;;22.69;46.16;101608.50;5021600;28;45253;-72
2022/07/03 10:59:42;;;;;;;;;4.00;4.00;;;;;22.70;46.11;101608.41;5022470;28;45451;-72
2022/07/03 11:02:27;;;;;;;;;3.25;3.00;;;;;22.74;46.05;101619.94;5021577;28;45312;-73
2022/07/03 11:04:58;;;;;;;;;4.00;3.75;;;;;22.74;46.23;101604.47;5021280;28;47076;-73
2022/07/03 11:07:27;;;;;;;;;2.50;2.50;;;;;22.77;45.80;101611.56;5020353;28;45690;-73
2022/07/03 11:10:14;;;;;;;;;2.25;2.25;;;;;22.79;45.46;101604.16;5021734;28;45469;-72
2022/07/03 11:13:03;;;;;;;;;4.50;3.00;;;;;22.81;45.81;101599.47;5021344;28;45368;-72
2022/07/03 11:15:48;;;;;;;;;3.25;3.25;;;;;22.83;46.21;101605.66;5041398;28;45256;-72
2022/07/03 11:18:15;;;;;;;;;4.00;4.00;;;;;22.85;46.36;101600.97;5022848;28;45225;-73
2022/07/03 11:20:43;;;;;;;;;6.50;6.50;;;;;22.88;45.57;101605.34;5039085;28;45473;-73
2022/07/03 11:23:23;;;;;;;;;12.25;11.75;;;;;22.88;46.57;101605.34;5027417;28;45580;-73
2022/07/03 11:25:51;;;;;;;;;4.25;4.25;;;;;22.86;46.00;101597.28;5029667;28;45829;-73
2022/07/03 11:28:31;;;;;;;;;5.25;5.25;;;;;22.93;45.69;101606.75;5020881;28;45414;-72
2022/07/03 11:31:15;;;;;;;;;145.25;136.25;;;;;22.96;45.95;101610.28;5021750;28;45451;-73
2022/07/03 11:33:51;;;;;;;;;15.00;13.75;;;;;22.89;45.85;101579.88;5031057;28;46137;-72
2022/07/03 11:36:16;;;;;;;;;5.00;5.00;;;;;22.98;45.77;101602.84;5020843;28;46256;-72
2022/07/03 11:38:43;;;;;;;;;5.75;4.75;;;;;22.96;45.23;101607.53;5024488;28;45469;-72
2022/07/03 11:41:11;;;;;;;;;4.00;4.00;;;;;22.96;45.36;101602.97;5035927;28;45723;-72
2022/07/03 11:43:36;;;;;;;;;7.50;5.00;;;;;22.87;46.19;101580.00;5032956;28;45389;-72
2022/07/03 11:46:03;;;;;;;;;3.00;3.00;;;;;22.98;45.63;101608.31;5021913;28;45494;-72
2022/07/03 11:48:30;;;;;;;;;4.00;4.00;;;;;22.96;46.08;101588.47;5020823;28;45434;-72